Aviation Digital Data Service (ADDS)

Output produced by METARs form (2028 UTC 08 August 2020)
found at http://www.aviationweather.gov/metar/data/
 
METAR text: KGYI 081950Z 17011G20KT 10SM SKC 36/18 A3007
Conditions at: KGYI (SHERMAN/DENISON , TX, US) observed 1950 UTC 08 August 2020
Temperature: 36.0°C (97°F)
Dewpoint: 18.0°C (64°F) [RH = 35%]
Pressure (altimeter): 30.07 inches Hg (1018.4 mb)
Winds: from the S (170 degrees) at 13 MPH (11 knots; 5.7 m/s)
gusting to 23 MPH (20 knots; 10.3 m/s)
Visibility: 10 or more miles (16+ km)
Ceiling: at least 12,000 feet AGL
Clouds: clear skies
Weather: no significant weather observed at this time